Alliance — WBV3784 — position and weather

sailwx.info

Track history (hours):
 
Tides and Currents Weather Stations Pressure Air Temp Water Temp Dewpoint Dewpoint Depression Visibility Wind Speed Wind Dir Waves Ship Positions

Alliance

Owner: PACCAR INC, BELLEVUE, WA. More information available from US FCC via Universal Licensing System and Coast Guard Vessel Documentation Center.

Last reported at 2018-Jun-17 20:04 UTC. Time now 2018-Jun-18 17:37 UTC.
Position N 48°23' W 123°19'.

; draft 3 m.

Type: Pleasure craft. MMSI: 303639000.

Date/timePositionNaut miles runAvg speedWind from/ knotsBaromVisibWave heightAir tempDewpointWater temp
2018-Jun-17 20:04N 48°23' W 123°19'112.6
2018-Jun-17 20:00N 48°23' W 123°18'1114.2
2018-Jun-17 19:15N 48°24' W 123°02'414.6
2018-Jun-17 19:00N 48°24' W 122°57'814.8
2018-Jun-17 18:29N 48°27' W 122°46'816.5
2018-Jun-17 18:00N 48°32' W 122°36'1 1.5
2018-Jun-17 17:30N 48°31' W 122°36'0 0.0
2018-Jun-17 17:00N 48°31' W 122°36'0 0.0
2018-Jun-17 16:30N 48°31' W 122°36'0 0.0
2018-Jun-17 16:00N 48°31' W 122°36'0 0.0
2018-Jun-17 15:24N 48°31' W 122°36'0 0.0
2018-Jun-17 15:00N 48°31' W 122°36'0 0.0
2018-Jun-17 14:24N 48°31' W 122°36'0 0.0
2018-Jun-17 14:00N 48°31' W 122°36'0 0.0
2018-Jun-17 13:30N 48°31' W 122°36'0 0.0
2018-Jun-17 13:00N 48°31' W 122°36'0 0.0
2018-Jun-17 12:30N 48°31' W 122°36'0 0.0
2018-Jun-17 12:00N 48°31' W 122°36'0 0.0
2018-Jun-17 11:30N 48°31' W 122°36'0 0.0
2018-Jun-17 11:00N 48°31' W 122°36'0 0.0
2018-Jun-17 10:24N 48°31' W 122°36'0 0.0
2018-Jun-17 09:54N 48°31' W 122°36'0 0.0
2018-Jun-17 09:30N 48°31' W 122°36'0 0.0
2018-Jun-17 09:00N 48°31' W 122°36'0 0.0
2018-Jun-17 08:30N 48°31' W 122°36'0 0.0
2018-Jun-17 08:00N 48°31' W 122°36'0 0.0
2018-Jun-17 07:30N 48°31' W 122°36'0 0.0
2018-Jun-17 07:00N 48°31' W 122°36'0 0.0
2018-Jun-17 06:30N 48°31' W 122°36'0 0.0
2018-Jun-17 06:00N 48°31' W 122°36'0 0.0
2018-Jun-17 05:30N 48°31' W 122°36'0 0.0
2018-Jun-17 05:00N 48°31' W 122°36'0 0.0
2018-Jun-17 04:30N 48°31' W 122°36'0 0.0
2018-Jun-17 04:00N 48°31' W 122°36'0 0.0
2018-Jun-17 03:30N 48°31' W 122°36'0 0.0
2018-Jun-17 03:00N 48°31' W 122°36'0 0.0
2018-Jun-17 02:30N 48°31' W 122°36'0 0.0
2018-Jun-17 02:00N 48°31' W 122°36'0 0.0
2018-Jun-17 01:30N 48°31' W 122°36'0 0.0
2018-Jun-17 01:00N 48°31' W 122°36'0 0.0
2018-Jun-17 00:30N 48°31' W 122°36'0 0.0
2018-Jun-17 00:00N 48°31' W 122°36'0 0.0
2018-Jun-16 23:30N 48°31' W 122°36'0 0.0
2018-Jun-16 23:00N 48°31' W 122°36'0 0.0
2018-Jun-16 22:30N 48°31' W 122°36'0 0.0
2018-Jun-16 22:00N 48°31' W 122°36'0 0.0
2018-Jun-16 21:30N 48°31' W 122°36'0 0.0
2018-Jun-16 21:00N 48°31' W 122°36'0 0.0
2018-Jun-16 20:30N 48°31' W 122°36'0 0.0
2018-Jun-16 20:00N 48°31' W 122°36'0 0.0
2018-Jun-16 19:30N 48°31' W 122°36'0 0.3
2018-Jun-16 19:00N 48°31' W 122°36'0 0.0
2018-Jun-16 18:30N 48°31' W 122°36'0 0.0
2018-Jun-16 17:54N 48°31' W 122°36'0 0.0
2018-Jun-16 17:30N 48°31' W 122°36'0 0.0
2018-Jun-16 17:00N 48°31' W 122°36'0 0.0
2018-Jun-16 16:30N 48°31' W 122°36'0 0.0
2018-Jun-16 16:00N 48°31' W 122°36'0 0.3
2018-Jun-16 15:30N 48°31' W 122°36'1 1.4
2018-Jun-16 15:00N 48°31' W 122°36'612.6
2018-Jun-16 14:30N 48°32' W 122°46'3 0.3
2018-Jun-16 02:26N 48°30' W 122°50'0 0.0
2018-Jun-16 01:59N 48°30' W 122°50'0 0.1
2018-Jun-16 01:20N 48°30' W 122°50'0 0.3
2018-Jun-16 01:00N 48°30' W 122°50'510.7
2018-Jun-16 00:30N 48°34' W 122°54'510.6
2018-Jun-16 00:00N 48°32' W 123°01'0 0.0
2018-Jun-15 23:25N 48°32' W 123°01'0 0.0
2018-Jun-15 22:58N 48°32' W 123°01'0 0.0
2018-Jun-15 22:28N 48°32' W 123°01'0 0.0
2018-Jun-15 21:55N 48°32' W 123°01'0 0.0
2018-Jun-15 21:25N 48°32' W 123°01'0 0.0
2018-Jun-15 20:58N 48°32' W 123°01'0 0.0
2018-Jun-15 20:28N 48°32' W 123°01'2 4.2
2018-Jun-15 19:59N 48°34' W 123°01'713.6
2018-Jun-15 19:26N 48°42' W 122°59'5 0.3
2018-Jun-15 03:01N 48°45' W 122°53'113.7
2018-Jun-15 02:57N 48°44' W 122°51'613.4
2018-Jun-15 02:30N 48°40' W 122°45'510.7
2018-Jun-15 02:00N 48°36' W 122°50'3 5.4
2018-Jun-15 01:30N 48°39' W 122°52'0 0.0
2018-Jun-15 00:57N 48°39' W 122°52'0 0.0
2018-Jun-15 00:30N 48°39' W 122°52'0 0.0
2018-Jun-15 00:00N 48°39' W 122°52'0 0.0
2018-Jun-14 23:30N 48°39' W 122°52'0 0.0
2018-Jun-14 23:00N 48°39' W 122°52'0 0.0
2018-Jun-14 22:30N 48°39' W 122°52'0 0.0
2018-Jun-14 22:00N 48°39' W 122°52'0 0.0
2018-Jun-14 21:00N 48°39' W 122°52'0 0.0
2018-Jun-14 20:30N 48°39' W 122°52'0 0.0
2018-Jun-14 20:00N 48°39' W 122°52'4 7.4
2018-Jun-14 19:30N 48°35' W 122°55'711.7
2018-Jun-14 18:56N 48°38' W 123°04'4 6.2
2018-Jun-14 18:14N 48°42' W 123°08'1 2.4
2018-Jun-14 17:51N 48°42' W 123°06'2 4.7
2018-Jun-14 17:21N 48°40' W 123°07'2 5.6
2018-Jun-14 16:58N 48°38' W 123°07'4 0.8
2018-Jun-14 12:09N 48°40' W 123°11'1 0.1
2018-Jun-14 00:41N 48°39' W 123°11'410.6
2018-Jun-14 00:18N 48°35' W 123°10'310.4
2018-Jun-14 00:00N 48°32' W 123°10'2 4.1
2018-Jun-13 23:30N 48°30' W 123°09'815.5
2018-Jun-13 23:00N 48°26' W 122°60'811.9
2018-Jun-13 22:21N 48°25' W 122°48'1 3.5
2018-Jun-13 22:00N 48°26' W 122°47'4 8.7
2018-Jun-13 21:30N 48°30' W 122°44'510.7
2018-Jun-13 21:00N 48°31' W 122°37'1 1.2
2018-Jun-13 20:25N 48°31' W 122°36'0 0.0
2018-Jun-13 19:55N 48°31' W 122°36'0 0.0
2018-Jun-13 19:25N 48°31' W 122°36'0 0.0
2018-Jun-13 18:55N 48°31' W 122°36'0 0.0
2018-Jun-13 18:25N 48°31' W 122°36'0 0.0
2018-Jun-13 17:55N 48°31' W 122°36'0 0.0
2018-Jun-13 17:25N 48°31' W 122°36'0 0.0
2018-Jun-13 16:55N 48°31' W 122°36'0 0.0
2018-Jun-13 16:25N 48°31' W 122°36'0 0.0
2018-Jun-13 15:55N 48°31' W 122°36'0 0.0
2018-Jun-13 15:25N 48°31' W 122°36'0 0.0
2018-Jun-13 14:55N 48°31' W 122°36'0 0.0
2018-Jun-13 14:25N 48°31' W 122°36'0 0.0
2018-Jun-13 13:49N 48°31' W 122°36'0 0.0
2018-Jun-13 13:25N 48°31' W 122°36'0 0.0
2018-Jun-13 12:55N 48°31' W 122°36'0 0.0
2018-Jun-13 12:25N 48°31' W 122°36'0 0.0
2018-Jun-13 11:55N 48°31' W 122°36'0 0.0
2018-Jun-13 11:19N 48°31' W 122°36'0 0.0
2018-Jun-13 10:55N 48°31' W 122°36'0 0.0
2018-Jun-13 10:25N 48°31' W 122°36'0 0.0
2018-Jun-13 09:55N 48°31' W 122°36'0 0.0
2018-Jun-13 09:19N 48°31' W 122°36'0 0.0
2018-Jun-13 08:55N 48°31' W 122°36'0 0.0
2018-Jun-13 08:25N 48°31' W 122°36'0 0.0
2018-Jun-13 07:55N 48°31' W 122°36'0 0.0
2018-Jun-13 07:25N 48°31' W 122°36'0 0.0
2018-Jun-13 06:55N 48°31' W 122°36'0 0.0
2018-Jun-13 06:25N 48°31' W 122°36'0 0.0
2018-Jun-13 05:55N 48°31' W 122°36'0 0.0
2018-Jun-13 05:25N 48°31' W 122°36'0 0.0
2018-Jun-13 04:55N 48°31' W 122°36'0 0.0
2018-Jun-13 04:25N 48°31' W 122°36'0 0.0
2018-Jun-13 03:55N 48°31' W 122°36'0 0.0
2018-Jun-13 03:25N 48°31' W 122°36'0 0.0
2018-Jun-13 02:55N 48°31' W 122°36'0 0.0
2018-Jun-13 02:25N 48°31' W 122°36'0 0.0
2018-Jun-13 01:55N 48°31' W 122°36'0 0.0
2018-Jun-13 01:19N 48°31' W 122°36'0 0.0
2018-Jun-13 00:55N 48°31' W 122°36'0 0.0
2018-Jun-13 00:25N 48°31' W 122°36'0 0.0
2018-Jun-12 23:55N 48°31' W 122°36'0 0.0
2018-Jun-12 23:25N 48°31' W 122°36'0 0.0
2018-Jun-12 22:49N 48°31' W 122°36'0 0.0
2018-Jun-12 22:25N 48°31' W 122°36'0 0.0
2018-Jun-12 21:55N 48°31' W 122°36'0 0.0
2018-Jun-12 21:25N 48°31' W 122°36'0 0.0
2018-Jun-12 20:55N 48°31' W 122°36'0 0.0
2018-Jun-12 20:19N 48°31' W 122°36'0 0.0
2018-Jun-12 19:55N 48°31' W 122°36'0 0.0
2018-Jun-12 19:25N 48°31' W 122°36'0 0.0
2018-Jun-12 18:55N 48°31' W 122°36'0 0.0
2018-Jun-12 18:25N 48°31' W 122°36'0 0.0
2018-Jun-12 17:55N 48°31' W 122°36'0 0.0
2018-Jun-12 17:25N 48°31' W 122°36'0 0.0
2018-Jun-12 16:55N 48°31' W 122°36'0 0.0
2018-Jun-12 16:25N 48°31' W 122°36'0 0.0
2018-Jun-12 15:55N 48°31' W 122°36'0 0.0
2018-Jun-12 15:25N 48°31' W 122°36'0 0.0
2018-Jun-12 14:55N 48°31' W 122°36'0 0.0
2018-Jun-12 14:25N 48°31' W 122°36'0 0.0
2018-Jun-12 13:55N 48°31' W 122°36'0 0.0
2018-Jun-12 13:25N 48°31' W 122°36'0 0.0
2018-Jun-12 12:55N 48°31' W 122°36'0 0.0
2018-Jun-12 12:25N 48°31' W 122°36'0 0.0
2018-Jun-12 11:55N 48°31' W 122°36'0 0.0
2018-Jun-12 11:25N 48°31' W 122°36'0 0.0
2018-Jun-12 10:55N 48°31' W 122°36'0 0.0
2018-Jun-12 10:25N 48°31' W 122°36'0 0.0
2018-Jun-12 09:55N 48°31' W 122°36'0 0.0
2018-Jun-12 09:25N 48°31' W 122°36'0 0.0
2018-Jun-12 08:55N 48°31' W 122°36'0 0.0
2018-Jun-12 08:25N 48°31' W 122°36'0 0.0
2018-Jun-12 07:55N 48°31' W 122°36'0 0.0
2018-Jun-12 07:25N 48°31' W 122°36'0 0.0
2018-Jun-12 06:55N 48°31' W 122°36'0 0.0
2018-Jun-12 06:25N 48°31' W 122°36'0 0.0
2018-Jun-12 05:55N 48°31' W 122°36'0 0.0
2018-Jun-12 05:25N 48°31' W 122°36'0 0.0
2018-Jun-12 04:55N 48°31' W 122°36'0 0.0
2018-Jun-12 04:19N 48°31' W 122°36'0 0.0
2018-Jun-12 03:55N 48°31' W 122°36'0 0.0
2018-Jun-12 03:25N 48°31' W 122°36'0 0.0
2018-Jun-12 02:55N 48°31' W 122°36'0 0.0
2018-Jun-12 02:25N 48°31' W 122°36'0 0.0
2018-Jun-12 01:55N 48°31' W 122°36'0 0.0
2018-Jun-12 01:25N 48°31' W 122°36'0 0.0
2018-Jun-12 00:55N 48°31' W 122°36'0 0.0
2018-Jun-12 00:25N 48°31' W 122°36'0 0.0
2018-Jun-11 23:55N 48°31' W 122°36'0 0.0
2018-Jun-11 23:19N 48°31' W 122°36'0 0.0
2018-Jun-11 22:55N 48°31' W 122°36'0 0.0
2018-Jun-11 22:25N 48°31' W 122°36'0 0.0
2018-Jun-11 21:55N 48°31' W 122°36'0 0.0
2018-Jun-11 21:19N 48°31' W 122°36'0 0.0
2018-Jun-11 20:55N 48°31' W 122°36'0 0.0
2018-Jun-11 20:19N 48°31' W 122°36'0 0.0
2018-Jun-11 19:55N 48°31' W 122°36'0 0.0
2018-Jun-11 19:25N 48°31' W 122°36'0 0.0
2018-Jun-11 18:55N 48°31' W 122°36'0 0.0
2018-Jun-11 18:25N 48°31' W 122°36'0 0.0
2018-Jun-11 17:55N 48°31' W 122°36'0 0.0
2018-Jun-11 17:25N 48°31' W 122°36'0 0.0
2018-Jun-11 16:55N 48°31' W 122°36'0 0.0
2018-Jun-11 16:30N 48°31' W 122°36'0 0.0
2018-Jun-11 16:00N 48°31' W 122°36'2 4.6
2018-Jun-11 15:30N 48°31' W 122°40'612.9
2018-Jun-11 15:00N 48°32' W 122°49'2 3.5
2018-Jun-11 14:29N 48°30' W 122°50'0 0.0
2018-Jun-11 13:56N 48°30' W 122°50'0 0.0
2018-Jun-11 13:29N 48°30' W 122°50'0 0.0
2018-Jun-11 12:56N 48°30' W 122°50'0 0.0
2018-Jun-11 12:29N 48°30' W 122°50'0 0.0
2018-Jun-11 11:59N 48°30' W 122°50'0 0.0
2018-Jun-11 11:29N 48°30' W 122°50'0 0.0
2018-Jun-11 10:59N 48°30' W 122°50'0 0.0
2018-Jun-11 10:29N 48°30' W 122°50'0 0.0
2018-Jun-11 09:47N 48°30' W 122°50'0 0.0
2018-Jun-11 09:14N 48°30' W 122°50'0 0.0
2018-Jun-11 08:59N 48°30' W 122°50'0 0.0
2018-Jun-11 08:29N 48°30' W 122°50'0 0.0
2018-Jun-11 07:56N 48°30' W 122°50'0 0.0
2018-Jun-11 07:26N 48°30' W 122°50'0 0.0
2018-Jun-11 06:56N 48°30' W 122°50'0 0.0
2018-Jun-11 06:29N 48°30' W 122°50'0 0.0
2018-Jun-11 05:56N 48°30' W 122°50'0 0.0
2018-Jun-11 05:26N 48°30' W 122°50'0 0.0
2018-Jun-11 04:59N 48°30' W 122°50'0 0.0
2018-Jun-11 04:14N 48°30' W 122°50'0 0.0
2018-Jun-11 03:50N 48°30' W 122°50'0 0.0
2018-Jun-11 03:29N 48°30' W 122°50'0 0.0
2018-Jun-11 02:47N 48°30' W 122°50'0 0.0
2018-Jun-11 02:30N 48°30' W 122°50'4 8.0
2018-Jun-11 02:00N 48°34' W 122°51'611.3
2018-Jun-11 01:30N 48°33' W 122°60'1 1.4
2018-Jun-11 00:59N 48°32' W 123°01'0 0.0
2018-Jun-11 00:29N 48°32' W 123°01'0 0.0
2018-Jun-10 23:59N 48°32' W 123°01'0 0.0
2018-Jun-10 23:20N 48°32' W 123°01'0 0.0
2018-Jun-10 22:59N 48°32' W 123°01'0 0.0
2018-Jun-10 22:29N 48°32' W 123°01'0 0.0
2018-Jun-10 21:59N 48°32' W 123°01'0 0.0
2018-Jun-10 21:17N 48°32' W 123°01'0 0.0
2018-Jun-10 20:59N 48°32' W 123°01'0 0.0
2018-Jun-10 20:29N 48°32' W 123°01'0 0.0
2018-Jun-10 19:59N 48°32' W 123°01'0 0.0
2018-Jun-10 19:29N 48°32' W 123°01'0 0.0
2018-Jun-10 18:56N 48°32' W 123°01'0 0.0
2018-Jun-10 18:29N 48°32' W 123°01'0 0.0
2018-Jun-10 17:59N 48°32' W 123°01'0 0.0
2018-Jun-10 17:29N 48°32' W 123°01'0 0.0
2018-Jun-10 16:59N 48°32' W 123°01'0 0.0
2018-Jun-10 16:30N 48°32' W 123°01'0 0.0
2018-Jun-10 16:00N 48°32' W 123°01'2 3.3
2018-Jun-10 15:25N 48°34' W 122°59'0 0.0
2018-Jun-10 14:58N 48°34' W 122°59'0 0.0
2018-Jun-10 13:58N 48°34' W 122°59'0 0.0
2018-Jun-10 13:19N 48°34' W 122°59'0 0.1
2018-Jun-10 12:58N 48°34' W 122°59'0 0.0
2018-Jun-10 12:28N 48°34' W 122°59'0 0.1
2018-Jun-10 11:58N 48°34' W 122°59'0 0.0
2018-Jun-10 11:28N 48°34' W 122°59'0 0.0
2018-Jun-10 10:58N 48°34' W 122°59'0 0.1
2018-Jun-10 10:28N 48°34' W 122°59'0 0.0
2018-Jun-10 09:58N 48°34' W 122°59'0 0.0
2018-Jun-10 09:28N 48°34' W 122°59'0 0.1
2018-Jun-10 08:58N 48°34' W 122°59'0 0.0
2018-Jun-10 08:28N 48°34' W 122°59'0 0.0
2018-Jun-10 07:58N 48°34' W 122°59'0 0.0
2018-Jun-10 07:28N 48°34' W 122°59'0 0.0
2018-Jun-10 06:58N 48°34' W 122°59'0 0.0
2018-Jun-10 06:28N 48°34' W 122°59'0 0.0
2018-Jun-10 05:58N 48°34' W 122°59'0 0.0
2018-Jun-10 05:28N 48°34' W 122°59'0 0.0
2018-Jun-10 04:58N 48°34' W 122°59'0 0.0
2018-Jun-10 04:28N 48°34' W 122°59'0 0.1
2018-Jun-10 03:58N 48°34' W 122°59'0 0.0
2018-Jun-10 03:28N 48°34' W 122°59'0 0.0
2018-Jun-10 02:55N 48°34' W 122°59'0 0.0
2018-Jun-10 02:30N 48°34' W 122°59'0 0.0
2018-Jun-10 02:00N 48°34' W 122°59'0 0.1
2018-Jun-10 01:30N 48°34' W 122°59'1 1.9
2018-Jun-10 01:00N 48°33' W 122°58'611.9
2018-Jun-10 00:31N 48°37' W 122°51'2 4.3
2018-Jun-09 23:59N 48°39' W 122°52'0 0.0
2018-Jun-09 23:29N 48°39' W 122°52'0 0.0
2018-Jun-09 22:56N 48°39' W 122°52'0 0.0
2018-Jun-09 22:26N 48°39' W 122°52'0 0.0
2018-Jun-09 21:35N 48°39' W 122°52'0 0.1
2018-Jun-09 21:30N 48°39' W 122°52'4 7.4
2018-Jun-09 21:00N 48°35' W 122°54'510.2
2018-Jun-09 20:30N 48°35' W 123°01'4 7.0
2018-Jun-09 20:00N 48°32' W 122°57'1 2.2
2018-Jun-09 19:30N 48°33' W 122°56'4 8.2
2018-Jun-09 19:00N 48°35' W 123°00'911.5
2018-Jun-09 18:13N 48°44' W 123°07'0 0.4
2018-Jun-09 17:57N 48°44' W 123°07'0 0.8
2018-Jun-09 17:24N 48°43' W 123°07'1 1.3
2018-Jun-09 17:00N 48°43' W 123°08'3 0.5
2018-Jun-09 09:41N 48°41' W 123°12'0 0.0
2018-Jun-09 09:23N 48°41' W 123°12'0 0.1
2018-Jun-09 08:59N 48°41' W 123°12'0 0.0
2018-Jun-09 07:08N 48°41' W 123°12'1 0.1
2018-Jun-08 23:14N 48°41' W 123°12'2 8.3
2018-Jun-08 22:56N 48°39' W 123°10'612.9
2018-Jun-08 22:30N 48°36' W 123°02'510.6
2018-Jun-08 22:01N 48°35' W 122°55'612.9
2018-Jun-08 21:30N 48°32' W 122°47'7 0.3
2018-Jun-07 23:10N 48°31' W 122°36'0 0.0
2018-Jun-07 22:58N 48°31' W 122°36'0 0.0
2018-Jun-07 22:28N 48°31' W 122°36'0 0.0
2018-Jun-07 21:58N 48°31' W 122°36'0 0.0
2018-Jun-07 21:28N 48°31' W 122°36'0 0.0
2018-Jun-07 20:58N 48°31' W 122°36'0 0.0
2018-Jun-07 20:28N 48°31' W 122°36'  
Track history (hours):
 
Tides and Currents Weather Stations Pressure Air Temp Water Temp Dewpoint Dewpoint Depression Visibility Wind Speed Wind Dir Waves Ship Positions

Alliance

Owner: PACCAR INC, BELLEVUE, WA. More information available from US FCC via Universal Licensing System and Coast Guard Vessel Documentation Center.

Last reported at 2018-Jun-17 20:04 UTC. Time now 2018-Jun-18 17:37 UTC.
Position N 48°23' W 123°19'.

; draft 3 m.

Type: Pleasure craft. MMSI: 303639000.

Date/timePositionNaut miles runAvg speedWind from/ knotsBaromVisibWave heightAir tempDewpointWater temp
2018-Jun-17 20:04N 48°23' W 123°19'112.6
2018-Jun-17 20:00N 48°23' W 123°18'1114.2
2018-Jun-17 19:15N 48°24' W 123°02'414.6
2018-Jun-17 19:00N 48°24' W 122°57'814.8
2018-Jun-17 18:29N 48°27' W 122°46'816.5
2018-Jun-17 18:00N 48°32' W 122°36'1 1.5
2018-Jun-17 17:30N 48°31' W 122°36'0 0.0
2018-Jun-17 17:00N 48°31' W 122°36'0 0.0
2018-Jun-17 16:30N 48°31' W 122°36'0 0.0
2018-Jun-17 16:00N 48°31' W 122°36'0 0.0
2018-Jun-17 15:24N 48°31' W 122°36'0 0.0
2018-Jun-17 15:00N 48°31' W 122°36'0 0.0
2018-Jun-17 14:24N 48°31' W 122°36'0 0.0
2018-Jun-17 14:00N 48°31' W 122°36'0 0.0
2018-Jun-17 13:30N 48°31' W 122°36'0 0.0
2018-Jun-17 13:00N 48°31' W 122°36'0 0.0
2018-Jun-17 12:30N 48°31' W 122°36'0 0.0
2018-Jun-17 12:00N 48°31' W 122°36'0 0.0
2018-Jun-17 11:30N 48°31' W 122°36'0 0.0
2018-Jun-17 11:00N 48°31' W 122°36'0 0.0
2018-Jun-17 10:24N 48°31' W 122°36'0 0.0
2018-Jun-17 09:54N 48°31' W 122°36'0 0.0
2018-Jun-17 09:30N 48°31' W 122°36'0 0.0
2018-Jun-17 09:00N 48°31' W 122°36'0 0.0
2018-Jun-17 08:30N 48°31' W 122°36'0 0.0
2018-Jun-17 08:00N 48°31' W 122°36'0 0.0
2018-Jun-17 07:30N 48°31' W 122°36'0 0.0
2018-Jun-17 07:00N 48°31' W 122°36'0 0.0
2018-Jun-17 06:30N 48°31' W 122°36'0 0.0
2018-Jun-17 06:00N 48°31' W 122°36'0 0.0
2018-Jun-17 05:30N 48°31' W 122°36'0 0.0
2018-Jun-17 05:00N 48°31' W 122°36'0 0.0
2018-Jun-17 04:30N 48°31' W 122°36'0 0.0
2018-Jun-17 04:00N 48°31' W 122°36'0 0.0
2018-Jun-17 03:30N 48°31' W 122°36'0 0.0
2018-Jun-17 03:00N 48°31' W 122°36'0 0.0
2018-Jun-17 02:30N 48°31' W 122°36'0 0.0
2018-Jun-17 02:00N 48°31' W 122°36'0 0.0
2018-Jun-17 01:30N 48°31' W 122°36'0 0.0
2018-Jun-17 01:00N 48°31' W 122°36'0 0.0
2018-Jun-17 00:30N 48°31' W 122°36'0 0.0
2018-Jun-17 00:00N 48°31' W 122°36'0 0.0
2018-Jun-16 23:30N 48°31' W 122°36'0 0.0
2018-Jun-16 23:00N 48°31' W 122°36'0 0.0
2018-Jun-16 22:30N 48°31' W 122°36'0 0.0
2018-Jun-16 22:00N 48°31' W 122°36'0 0.0
2018-Jun-16 21:30N 48°31' W 122°36'0 0.0
2018-Jun-16 21:00N 48°31' W 122°36'0 0.0
2018-Jun-16 20:30N 48°31' W 122°36'0 0.0
2018-Jun-16 20:00N 48°31' W 122°36'0 0.0
2018-Jun-16 19:30N 48°31' W 122°36'0 0.3
2018-Jun-16 19:00N 48°31' W 122°36'0 0.0
2018-Jun-16 18:30N 48°31' W 122°36'0 0.0
2018-Jun-16 17:54N 48°31' W 122°36'0 0.0
2018-Jun-16 17:30N 48°31' W 122°36'0 0.0
2018-Jun-16 17:00N 48°31' W 122°36'0 0.0
2018-Jun-16 16:30N 48°31' W 122°36'0 0.0
2018-Jun-16 16:00N 48°31' W 122°36'0 0.3
2018-Jun-16 15:30N 48°31' W 122°36'1 1.4
2018-Jun-16 15:00N 48°31' W 122°36'612.6
2018-Jun-16 14:30N 48°32' W 122°46'3 0.3
2018-Jun-16 02:26N 48°30' W 122°50'0 0.0
2018-Jun-16 01:59N 48°30' W 122°50'0 0.1
2018-Jun-16 01:20N 48°30' W 122°50'0 0.3
2018-Jun-16 01:00N 48°30' W 122°50'510.7
2018-Jun-16 00:30N 48°34' W 122°54'510.6
2018-Jun-16 00:00N 48°32' W 123°01'0 0.0
2018-Jun-15 23:25N 48°32' W 123°01'0 0.0
2018-Jun-15 22:58N 48°32' W 123°01'0 0.0
2018-Jun-15 22:28N 48°32' W 123°01'0 0.0
2018-Jun-15 21:55N 48°32' W 123°01'0 0.0
2018-Jun-15 21:25N 48°32' W 123°01'0 0.0
2018-Jun-15 20:58N 48°32' W 123°01'0 0.0
2018-Jun-15 20:28N 48°32' W 123°01'2 4.2
2018-Jun-15 19:59N 48°34' W 123°01'713.6
2018-Jun-15 19:26N 48°42' W 122°59'5 0.3
2018-Jun-15 03:01N 48°45' W 122°53'113.7
2018-Jun-15 02:57N 48°44' W 122°51'613.4
2018-Jun-15 02:30N 48°40' W 122°45'510.7
2018-Jun-15 02:00N 48°36' W 122°50'3 5.4
2018-Jun-15 01:30N 48°39' W 122°52'0 0.0
2018-Jun-15 00:57N 48°39' W 122°52'0 0.0
2018-Jun-15 00:30N 48°39' W 122°52'0 0.0
2018-Jun-15 00:00N 48°39' W 122°52'0 0.0
2018-Jun-14 23:30N 48°39' W 122°52'0 0.0
2018-Jun-14 23:00N 48°39' W 122°52'0 0.0
2018-Jun-14 22:30N 48°39' W 122°52'0 0.0
2018-Jun-14 22:00N 48°39' W 122°52'0 0.0
2018-Jun-14 21:00N 48°39' W 122°52'0 0.0
2018-Jun-14 20:30N 48°39' W 122°52'0 0.0
2018-Jun-14 20:00N 48°39' W 122°52'4 7.4
2018-Jun-14 19:30N 48°35' W 122°55'711.7
2018-Jun-14 18:56N 48°38' W 123°04'4 6.2
2018-Jun-14 18:14N 48°42' W 123°08'1 2.4
2018-Jun-14 17:51N 48°42' W 123°06'2 4.7
2018-Jun-14 17:21N 48°40' W 123°07'2 5.6
2018-Jun-14 16:58N 48°38' W 123°07'4 0.8
2018-Jun-14 12:09N 48°40' W 123°11'1 0.1
2018-Jun-14 00:41N 48°39' W 123°11'410.6
2018-Jun-14 00:18N 48°35' W 123°10'310.4
2018-Jun-14 00:00N 48°32' W 123°10'2 4.1
2018-Jun-13 23:30N 48°30' W 123°09'815.5
2018-Jun-13 23:00N 48°26' W 122°60'811.9
2018-Jun-13 22:21N 48°25' W 122°48'1 3.5
2018-Jun-13 22:00N 48°26' W 122°47'4 8.7
2018-Jun-13 21:30N 48°30' W 122°44'510.7
2018-Jun-13 21:00N 48°31' W 122°37'1 1.2
2018-Jun-13 20:25N 48°31' W 122°36'0 0.0
2018-Jun-13 19:55N 48°31' W 122°36'0 0.0
2018-Jun-13 19:25N 48°31' W 122°36'0 0.0
2018-Jun-13 18:55N 48°31' W 122°36'0 0.0
2018-Jun-13 18:25N 48°31' W 122°36'0 0.0
2018-Jun-13 17:55N 48°31' W 122°36'0 0.0
2018-Jun-13 17:25N 48°31' W 122°36'0 0.0
2018-Jun-13 16:55N 48°31' W 122°36'0 0.0
2018-Jun-13 16:25N 48°31' W 122°36'0 0.0
2018-Jun-13 15:55N 48°31' W 122°36'0 0.0
2018-Jun-13 15:25N 48°31' W 122°36'0 0.0
2018-Jun-13 14:55N 48°31' W 122°36'0 0.0
2018-Jun-13 14:25N 48°31' W 122°36'0 0.0
2018-Jun-13 13:49N 48°31' W 122°36'0 0.0
2018-Jun-13 13:25N 48°31' W 122°36'0 0.0
2018-Jun-13 12:55N 48°31' W 122°36'0 0.0
2018-Jun-13 12:25N 48°31' W 122°36'0 0.0
2018-Jun-13 11:55N 48°31' W 122°36'0 0.0
2018-Jun-13 11:19N 48°31' W 122°36'0 0.0
2018-Jun-13 10:55N 48°31' W 122°36'0 0.0
2018-Jun-13 10:25N 48°31' W 122°36'0 0.0
2018-Jun-13 09:55N 48°31' W 122°36'0 0.0
2018-Jun-13 09:19N 48°31' W 122°36'0 0.0
2018-Jun-13 08:55N 48°31' W 122°36'0 0.0
2018-Jun-13 08:25N 48°31' W 122°36'0 0.0
2018-Jun-13 07:55N 48°31' W 122°36'0 0.0
2018-Jun-13 07:25N 48°31' W 122°36'0 0.0
2018-Jun-13 06:55N 48°31' W 122°36'0 0.0
2018-Jun-13 06:25N 48°31' W 122°36'0 0.0
2018-Jun-13 05:55N 48°31' W 122°36'0 0.0
2018-Jun-13 05:25N 48°31' W 122°36'0 0.0
2018-Jun-13 04:55N 48°31' W 122°36'0 0.0
2018-Jun-13 04:25N 48°31' W 122°36'0 0.0
2018-Jun-13 03:55N 48°31' W 122°36'0 0.0
2018-Jun-13 03:25N 48°31' W 122°36'0 0.0
2018-Jun-13 02:55N 48°31' W 122°36'0 0.0
2018-Jun-13 02:25N 48°31' W 122°36'0 0.0
2018-Jun-13 01:55N 48°31' W 122°36'0 0.0
2018-Jun-13 01:19N 48°31' W 122°36'0 0.0
2018-Jun-13 00:55N 48°31' W 122°36'0 0.0
2018-Jun-13 00:25N 48°31' W 122°36'0 0.0
2018-Jun-12 23:55N 48°31' W 122°36'0 0.0
2018-Jun-12 23:25N 48°31' W 122°36'0 0.0
2018-Jun-12 22:49N 48°31' W 122°36'0 0.0
2018-Jun-12 22:25N 48°31' W 122°36'0 0.0
2018-Jun-12 21:55N 48°31' W 122°36'0 0.0
2018-Jun-12 21:25N 48°31' W 122°36'0 0.0
2018-Jun-12 20:55N 48°31' W 122°36'0 0.0
2018-Jun-12 20:19N 48°31' W 122°36'0 0.0
2018-Jun-12 19:55N 48°31' W 122°36'0 0.0
2018-Jun-12 19:25N 48°31' W 122°36'0 0.0
2018-Jun-12 18:55N 48°31' W 122°36'0 0.0
2018-Jun-12 18:25N 48°31' W 122°36'0 0.0
2018-Jun-12 17:55N 48°31' W 122°36'0 0.0
2018-Jun-12 17:25N 48°31' W 122°36'0 0.0
2018-Jun-12 16:55N 48°31' W 122°36'0 0.0
2018-Jun-12 16:25N 48°31' W 122°36'0 0.0
2018-Jun-12 15:55N 48°31' W 122°36'0 0.0
2018-Jun-12 15:25N 48°31' W 122°36'0 0.0
2018-Jun-12 14:55N 48°31' W 122°36'0 0.0
2018-Jun-12 14:25N 48°31' W 122°36'0 0.0
2018-Jun-12 13:55N 48°31' W 122°36'0 0.0
2018-Jun-12 13:25N 48°31' W 122°36'0 0.0
2018-Jun-12 12:55N 48°31' W 122°36'0 0.0
2018-Jun-12 12:25N 48°31' W 122°36'0 0.0
2018-Jun-12 11:55N 48°31' W 122°36'0 0.0
2018-Jun-12 11:25N 48°31' W 122°36'0 0.0
2018-Jun-12 10:55N 48°31' W 122°36'0 0.0
2018-Jun-12 10:25N 48°31' W 122°36'0 0.0
2018-Jun-12 09:55N 48°31' W 122°36'0 0.0
2018-Jun-12 09:25N 48°31' W 122°36'0 0.0
2018-Jun-12 08:55N 48°31' W 122°36'0 0.0
2018-Jun-12 08:25N 48°31' W 122°36'0 0.0
2018-Jun-12 07:55N 48°31' W 122°36'0 0.0
2018-Jun-12 07:25N 48°31' W 122°36'0 0.0
2018-Jun-12 06:55N 48°31' W 122°36'0 0.0
2018-Jun-12 06:25N 48°31' W 122°36'0 0.0
2018-Jun-12 05:55N 48°31' W 122°36'0 0.0
2018-Jun-12 05:25N 48°31' W 122°36'0 0.0
2018-Jun-12 04:55N 48°31' W 122°36'0 0.0
2018-Jun-12 04:19N 48°31' W 122°36'0 0.0
2018-Jun-12 03:55N 48°31' W 122°36'0 0.0
2018-Jun-12 03:25N 48°31' W 122°36'0 0.0
2018-Jun-12 02:55N 48°31' W 122°36'0 0.0
2018-Jun-12 02:25N 48°31' W 122°36'0 0.0
2018-Jun-12 01:55N 48°31' W 122°36'0 0.0
2018-Jun-12 01:25N 48°31' W 122°36'0 0.0
2018-Jun-12 00:55N 48°31' W 122°36'0 0.0
2018-Jun-12 00:25N 48°31' W 122°36'0 0.0
2018-Jun-11 23:55N 48°31' W 122°36'0 0.0
2018-Jun-11 23:19N 48°31' W 122°36'0 0.0
2018-Jun-11 22:55N 48°31' W 122°36'0 0.0
2018-Jun-11 22:25N 48°31' W 122°36'0 0.0
2018-Jun-11 21:55N 48°31' W 122°36'0 0.0
2018-Jun-11 21:19N 48°31' W 122°36'0 0.0
2018-Jun-11 20:55N 48°31' W 122°36'0 0.0
2018-Jun-11 20:19N 48°31' W 122°36'0 0.0
2018-Jun-11 19:55N 48°31' W 122°36'0 0.0
2018-Jun-11 19:25N 48°31' W 122°36'0 0.0
2018-Jun-11 18:55N 48°31' W 122°36'0 0.0
2018-Jun-11 18:25N 48°31' W 122°36'0 0.0
2018-Jun-11 17:55N 48°31' W 122°36'0 0.0
2018-Jun-11 17:25N 48°31' W 122°36'0 0.0
2018-Jun-11 16:55N 48°31' W 122°36'0 0.0
2018-Jun-11 16:30N 48°31' W 122°36'0 0.0
2018-Jun-11 16:00N 48°31' W 122°36'2 4.6
2018-Jun-11 15:30N 48°31' W 122°40'612.9
2018-Jun-11 15:00N 48°32' W 122°49'2 3.5
2018-Jun-11 14:29N 48°30' W 122°50'0 0.0
2018-Jun-11 13:56N 48°30' W 122°50'0 0.0
2018-Jun-11 13:29N 48°30' W 122°50'0 0.0
2018-Jun-11 12:56N 48°30' W 122°50'0 0.0
2018-Jun-11 12:29N 48°30' W 122°50'0 0.0
2018-Jun-11 11:59N 48°30' W 122°50'0 0.0
2018-Jun-11 11:29N 48°30' W 122°50'0 0.0
2018-Jun-11 10:59N 48°30' W 122°50'0 0.0
2018-Jun-11 10:29N 48°30' W 122°50'0 0.0
2018-Jun-11 09:47N 48°30' W 122°50'0 0.0
2018-Jun-11 09:14N 48°30' W 122°50'0 0.0
2018-Jun-11 08:59N 48°30' W 122°50'0 0.0
2018-Jun-11 08:29N 48°30' W 122°50'0 0.0
2018-Jun-11 07:56N 48°30' W 122°50'0 0.0
2018-Jun-11 07:26N 48°30' W 122°50'0 0.0
2018-Jun-11 06:56N 48°30' W 122°50'0 0.0
2018-Jun-11 06:29N 48°30' W 122°50'0 0.0
2018-Jun-11 05:56N 48°30' W 122°50'0 0.0
2018-Jun-11 05:26N 48°30' W 122°50'0 0.0
2018-Jun-11 04:59N 48°30' W 122°50'0 0.0
2018-Jun-11 04:14N 48°30' W 122°50'0 0.0
2018-Jun-11 03:50N 48°30' W 122°50'0 0.0
2018-Jun-11 03:29N 48°30' W 122°50'0 0.0
2018-Jun-11 02:47N 48°30' W 122°50'0 0.0
2018-Jun-11 02:30N 48°30' W 122°50'4 8.0
2018-Jun-11 02:00N 48°34' W 122°51'611.3
2018-Jun-11 01:30N 48°33' W 122°60'1 1.4
2018-Jun-11 00:59N 48°32' W 123°01'0 0.0
2018-Jun-11 00:29N 48°32' W 123°01'0 0.0
2018-Jun-10 23:59N 48°32' W 123°01'0 0.0
2018-Jun-10 23:20N 48°32' W 123°01'0 0.0
2018-Jun-10 22:59N 48°32' W 123°01'0 0.0
2018-Jun-10 22:29N 48°32' W 123°01'0 0.0
2018-Jun-10 21:59N 48°32' W 123°01'0 0.0
2018-Jun-10 21:17N 48°32' W 123°01'0 0.0
2018-Jun-10 20:59N 48°32' W 123°01'0 0.0
2018-Jun-10 20:29N 48°32' W 123°01'0 0.0
2018-Jun-10 19:59N 48°32' W 123°01'0 0.0
2018-Jun-10 19:29N 48°32' W 123°01'0 0.0
2018-Jun-10 18:56N 48°32' W 123°01'0 0.0
2018-Jun-10 18:29N 48°32' W 123°01'0 0.0
2018-Jun-10 17:59N 48°32' W 123°01'0 0.0
2018-Jun-10 17:29N 48°32' W 123°01'0 0.0
2018-Jun-10 16:59N 48°32' W 123°01'0 0.0
2018-Jun-10 16:30N 48°32' W 123°01'0 0.0
2018-Jun-10 16:00N 48°32' W 123°01'2 3.3
2018-Jun-10 15:25N 48°34' W 122°59'0 0.0
2018-Jun-10 14:58N 48°34' W 122°59'0 0.0
2018-Jun-10 13:58N 48°34' W 122°59'0 0.0
2018-Jun-10 13:19N 48°34' W 122°59'0 0.1
2018-Jun-10 12:58N 48°34' W 122°59'0 0.0
2018-Jun-10 12:28N 48°34' W 122°59'0 0.1
2018-Jun-10 11:58N 48°34' W 122°59'0 0.0
2018-Jun-10 11:28N 48°34' W 122°59'0 0.0
2018-Jun-10 10:58N 48°34' W 122°59'0 0.1
2018-Jun-10 10:28N 48°34' W 122°59'0 0.0
2018-Jun-10 09:58N 48°34' W 122°59'0 0.0
2018-Jun-10 09:28N 48°34' W 122°59'0 0.1
2018-Jun-10 08:58N 48°34' W 122°59'0 0.0
2018-Jun-10 08:28N 48°34' W 122°59'0 0.0
2018-Jun-10 07:58N 48°34' W 122°59'0 0.0
2018-Jun-10 07:28N 48°34' W 122°59'0 0.0
2018-Jun-10 06:58N 48°34' W 122°59'0 0.0
2018-Jun-10 06:28N 48°34' W 122°59'0 0.0
2018-Jun-10 05:58N 48°34' W 122°59'0 0.0
2018-Jun-10 05:28N 48°34' W 122°59'0 0.0
2018-Jun-10 04:58N 48°34' W 122°59'0 0.0
2018-Jun-10 04:28N 48°34' W 122°59'0 0.1
2018-Jun-10 03:58N 48°34' W 122°59'0 0.0
2018-Jun-10 03:28N 48°34' W 122°59'0 0.0
2018-Jun-10 02:55N 48°34' W 122°59'0 0.0
2018-Jun-10 02:30N 48°34' W 122°59'0 0.0
2018-Jun-10 02:00N 48°34' W 122°59'0 0.1
2018-Jun-10 01:30N 48°34' W 122°59'1 1.9
2018-Jun-10 01:00N 48°33' W 122°58'611.9
2018-Jun-10 00:31N 48°37' W 122°51'2 4.3
2018-Jun-09 23:59N 48°39' W 122°52'0 0.0
2018-Jun-09 23:29N 48°39' W 122°52'0 0.0
2018-Jun-09 22:56N 48°39' W 122°52'0 0.0
2018-Jun-09 22:26N 48°39' W 122°52'0 0.0
2018-Jun-09 21:35N 48°39' W 122°52'0 0.1
2018-Jun-09 21:30N 48°39' W 122°52'4 7.4
2018-Jun-09 21:00N 48°35' W 122°54'510.2
2018-Jun-09 20:30N 48°35' W 123°01'4 7.0
2018-Jun-09 20:00N 48°32' W 122°57'1 2.2
2018-Jun-09 19:30N 48°33' W 122°56'4 8.2
2018-Jun-09 19:00N 48°35' W 123°00'911.5
2018-Jun-09 18:13N 48°44' W 123°07'0 0.4
2018-Jun-09 17:57N 48°44' W 123°07'0 0.8
2018-Jun-09 17:24N 48°43' W 123°07'1 1.3
2018-Jun-09 17:00N 48°43' W 123°08'3 0.5
2018-Jun-09 09:41N 48°41' W 123°12'0 0.0
2018-Jun-09 09:23N 48°41' W 123°12'0 0.1
2018-Jun-09 08:59N 48°41' W 123°12'0 0.0
2018-Jun-09 07:08N 48°41' W 123°12'1 0.1
2018-Jun-08 23:14N 48°41' W 123°12'2 8.3
2018-Jun-08 22:56N 48°39' W 123°10'612.9
2018-Jun-08 22:30N 48°36' W 123°02'510.6
2018-Jun-08 22:01N 48°35' W 122°55'612.9
2018-Jun-08 21:30N 48°32' W 122°47'7 0.3
2018-Jun-07 23:10N 48°31' W 122°36'0 0.0
2018-Jun-07 22:58N 48°31' W 122°36'0 0.0
2018-Jun-07 22:28N 48°31' W 122°36'0 0.0
2018-Jun-07 21:58N 48°31' W 122°36'0 0.0
2018-Jun-07 21:28N 48°31' W 122°36'0 0.0
2018-Jun-07 20:58N 48°31' W 122°36'0 0.0
2018-Jun-07 20:28N 48°31' W 122°36'  

Dump ship's entire track history